sensor_id;sensor_type;location;lat;lon;timestamp;pressure;altitude;pressure_sealevel;temperature;humidity
26443;BME280;5563;52.296;6.806;2023-04-20T00:02:25;102182.34;;;4.90;47.59
26443;BME280;5563;52.296;6.806;2023-04-20T00:04:52;102169.88;;;4.93;47.62
26443;BME280;5563;52.296;6.806;2023-04-20T00:07:25;102170.56;;;5.00;47.60
26443;BME280;5563;52.296;6.806;2023-04-20T00:09:52;102162.56;;;5.01;47.77
26443;BME280;5563;52.296;6.806;2023-04-20T00:12:25;102146.81;;;4.98;47.63
26443;BME280;5563;52.296;6.806;2023-04-20T00:14:58;102153.63;;;5.04;47.64
26443;BME280;5563;52.296;6.806;2023-04-20T00:17:32;102142.16;;;5.05;47.70
26443;BME280;5563;52.296;6.806;2023-04-20T00:19:59;102137.69;;;5.07;47.72
26443;BME280;5563;52.296;6.806;2023-04-20T00:22:32;102138.44;;;5.10;47.64
26443;BME280;5563;52.296;6.806;2023-04-20T00:24:59;102132.22;;;5.11;48.39
26443;BME280;5563;52.296;6.806;2023-04-20T00:27:32;102140.81;;;5.16;49.39
26443;BME280;5563;52.296;6.806;2023-04-20T00:29:59;102126.03;;;5.12;49.48
26443;BME280;5563;52.296;6.806;2023-04-20T00:32:32;102139.13;;;5.15;49.24
26443;BME280;5563;52.296;6.806;2023-04-20T00:35:06;102134.75;;;5.14;50.26
26443;BME280;5563;52.296;6.806;2023-04-20T00:37:39;102119.19;;;5.07;50.60
26443;BME280;5563;52.296;6.806;2023-04-20T00:40:07;102121.88;;;5.05;50.87
26443;BME280;5563;52.296;6.806;2023-04-20T00:42:40;102109.81;;;4.98;50.56
26443;BME280;5563;52.296;6.806;2023-04-20T00:45:08;102109.03;;;4.96;50.70
26443;BME280;5563;52.296;6.806;2023-04-20T00:47:41;102107.28;;;4.95;50.66
26443;BME280;5563;52.296;6.806;2023-04-20T00:50:15;102098.50;;;4.95;51.38
26443;BME280;5563;52.296;6.806;2023-04-20T00:52:43;102095.97;;;4.92;51.11
26443;BME280;5563;52.296;6.806;2023-04-20T00:55:18;102092.56;;;4.88;52.00
26443;BME280;5563;52.296;6.806;2023-04-20T00:57:51;102093.44;;;4.89;53.12
26443;BME280;5563;52.296;6.806;2023-04-20T01:00:25;102081.03;;;4.91;52.42
26443;BME280;5563;52.296;6.806;2023-04-20T01:02:58;102076.44;;;4.96;53.20
26443;BME280;5563;52.296;6.806;2023-04-20T01:05:32;102059.72;;;4.95;54.10
26443;BME280;5563;52.296;6.806;2023-04-20T01:07:59;102077.28;;;5.19;55.28
26443;BME280;5563;52.296;6.806;2023-04-20T01:10:32;102071.66;;;5.27;54.99
26443;BME280;5563;52.296;6.806;2023-04-20T01:12:59;102056.53;;;5.30;54.39
26443;BME280;5563;52.296;6.806;2023-04-20T01:15:26;102071.97;;;5.41;54.49
26443;BME280;5563;52.296;6.806;2023-04-20T01:17:59;102060.19;;;5.49;53.81
26443;BME280;5563;52.296;6.806;2023-04-20T01:20:26;102061.53;;;5.60;55.72
26443;BME280;5563;52.296;6.806;2023-04-20T01:23:00;102056.84;;;5.66;54.92
26443;BME280;5563;52.296;6.806;2023-04-20T01:25:26;102044.16;;;5.74;54.14
26443;BME280;5563;52.296;6.806;2023-04-20T01:27:59;102044.84;;;5.79;55.02
26443;BME280;5563;52.296;6.806;2023-04-20T01:30:27;102043.69;;;5.86;55.25
26443;BME280;5563;52.296;6.806;2023-04-20T01:33:01;102025.97;;;5.88;56.05
26443;BME280;5563;52.296;6.806;2023-04-20T01:35:28;102034.41;;;5.96;54.98
26443;BME280;5563;52.296;6.806;2023-04-20T01:37:55;102013.25;;;5.96;55.55
26443;BME280;5563;52.296;6.806;2023-04-20T01:40:29;102019.25;;;6.00;55.99
26443;BME280;5563;52.296;6.806;2023-04-20T01:43:01;102027.59;;;6.11;55.57
26443;BME280;5563;52.296;6.806;2023-04-20T01:45:28;102017.09;;;6.09;55.35
26443;BME280;5563;52.296;6.806;2023-04-20T01:48:01;102025.69;;;6.14;54.78
26443;BME280;5563;52.296;6.806;2023-04-20T01:50:28;102009.72;;;6.16;55.02
26443;BME280;5563;52.296;6.806;2023-04-20T01:53:02;102008.66;;;6.20;55.26
26443;BME280;5563;52.296;6.806;2023-04-20T01:55:28;102006.53;;;6.28;55.33
26443;BME280;5563;52.296;6.806;2023-04-20T01:58:08;102010.78;;;6.32;55.31
26443;BME280;5563;52.296;6.806;2023-04-20T02:00:35;102001.84;;;6.34;55.28
26443;BME280;5563;52.296;6.806;2023-04-20T02:03:08;101989.38;;;6.36;55.44
26443;BME280;5563;52.296;6.806;2023-04-20T02:05:36;101993.47;;;6.43;55.46
26443;BME280;5563;52.296;6.806;2023-04-20T02:08:10;101987.31;;;6.43;55.33
26443;BME280;5563;52.296;6.806;2023-04-20T02:10:37;101983.69;;;6.45;55.22
26443;BME280;5563;52.296;6.806;2023-04-20T02:13:09;101984.97;;;6.55;55.31
26443;BME280;5563;52.296;6.806;2023-04-20T02:15:43;101980.31;;;6.61;55.57
26443;BME280;5563;52.296;6.806;2023-04-20T02:18:10;101981.75;;;6.68;55.61
26443;BME280;5563;52.296;6.806;2023-04-20T02:20:44;101978.09;;;6.70;55.94
26443;BME280;5563;52.296;6.806;2023-04-20T02:23:11;101978.44;;;6.81;55.77
26443;BME280;5563;52.296;6.806;2023-04-20T02:25:44;101979.88;;;6.88;55.25
26443;BME280;5563;52.296;6.806;2023-04-20T02:28:17;101967.97;;;6.97;54.74
26443;BME280;5563;52.296;6.806;2023-04-20T02:30:44;101976.41;;;7.05;54.58
26443;BME280;5563;52.296;6.806;2023-04-20T02:33:18;101965.09;;;7.01;54.38
26443;BME280;5563;52.296;6.806;2023-04-20T02:35:46;101967.53;;;7.06;54.99
26443;BME280;5563;52.296;6.806;2023-04-20T02:38:19;101973.41;;;7.12;54.65
26443;BME280;5563;52.296;6.806;2023-04-20T02:40:46;101970.59;;;7.15;54.94
26443;BME280;5563;52.296;6.806;2023-04-20T02:43:19;101961.91;;;7.12;54.41
26443;BME280;5563;52.296;6.806;2023-04-20T02:45:46;101959.06;;;7.16;54.45
26443;BME280;5563;52.296;6.806;2023-04-20T02:48:19;101956.34;;;7.18;54.57
26443;BME280;5563;52.296;6.806;2023-04-20T02:50:46;101950.06;;;7.19;54.60
26443;BME280;5563;52.296;6.806;2023-04-20T02:53:13;101960.69;;;7.19;54.91
26443;BME280;5563;52.296;6.806;2023-04-20T02:55:46;101944.84;;;7.17;54.78
26443;BME280;5563;52.296;6.806;2023-04-20T02:58:13;101944.84;;;7.17;54.74
26443;BME280;5563;52.296;6.806;2023-04-20T03:00:47;101938.69;;;7.17;54.63
26443;BME280;5563;52.296;6.806;2023-04-20T03:03:20;101936.91;;;7.17;54.85
26443;BME280;5563;52.296;6.806;2023-04-20T03:05:54;101935.97;;;7.18;54.92
26443;BME280;5563;52.296;6.806;2023-04-20T03:08:22;101937.84;;;7.16;55.26
26443;BME280;5563;52.296;6.806;2023-04-20T03:10:55;101942.91;;;7.21;54.85
26443;BME280;5563;52.296;6.806;2023-04-20T03:13:22;101941.28;;;7.18;54.97
26443;BME280;5563;52.296;6.806;2023-04-20T03:15:55;101942.03;;;7.20;55.05
26443;BME280;5563;52.296;6.806;2023-04-20T03:18:22;101929.03;;;7.16;55.37
26443;BME280;5563;52.296;6.806;2023-04-20T03:20:55;101933.47;;;7.15;55.51
26443;BME280;5563;52.296;6.806;2023-04-20T03:23:22;101944.69;;;7.20;55.58
26443;BME280;5563;52.296;6.806;2023-04-20T03:25:55;101930.53;;;7.21;56.01
26443;BME280;5563;52.296;6.806;2023-04-20T03:28:23;101925.38;;;7.18;56.23
26443;BME280;5563;52.296;6.806;2023-04-20T03:30:55;101927.94;;;7.20;57.14
26443;BME280;5563;52.296;6.806;2023-04-20T03:33:28;101914.81;;;7.17;57.31
26443;BME280;5563;52.296;6.806;2023-04-20T03:35:55;101918.16;;;7.20;57.48
26443;BME280;5563;52.296;6.806;2023-04-20T03:38:29;101908.81;;;7.13;57.97
26443;BME280;5563;52.296;6.806;2023-04-20T03:41:03;101904.53;;;7.11;57.87
26443;BME280;5563;52.296;6.806;2023-04-20T03:43:37;101903.75;;;7.09;58.17
26443;BME280;5563;52.296;6.806;2023-04-20T03:46:09;101902.00;;;7.08;58.10
26443;BME280;5563;52.296;6.806;2023-04-20T03:48:42;101904.91;;;7.03;58.28
26443;BME280;5563;52.296;6.806;2023-04-20T03:51:15;101907.47;;;7.05;58.40
26443;BME280;5563;52.296;6.806;2023-04-20T03:53:42;101897.22;;;6.97;58.51
26443;BME280;5563;52.296;6.806;2023-04-20T03:56:16;101893.66;;;6.98;58.64
26443;BME280;5563;52.296;6.806;2023-04-20T03:58:49;101891.94;;;6.97;58.82
26443;BME280;5563;52.296;6.806;2023-04-20T04:01:30;101895.63;;;6.95;58.83
26443;BME280;5563;52.296;6.806;2023-04-20T04:03:57;101893.84;;;6.95;59.25
26443;BME280;5563;52.296;6.806;2023-04-20T04:06:31;101912.44;;;6.94;59.52
26443;BME280;5563;52.296;6.806;2023-04-20T04:08:58;101878.59;;;6.82;58.93
26443;BME280;5563;52.296;6.806;2023-04-20T04:11:32;101902.94;;;6.90;59.50
26443;BME280;5563;52.296;6.806;2023-04-20T04:13:58;101907.38;;;6.89;59.55
26443;BME280;5563;52.296;6.806;2023-04-20T04:16:31;101906.66;;;6.86;59.68
26443;BME280;5563;52.296;6.806;2023-04-20T04:19:04;101901.38;;;6.86;59.73
26443;BME280;5563;52.296;6.806;2023-04-20T04:21:38;101901.66;;;6.80;59.99
26443;BME280;5563;52.296;6.806;2023-04-20T04:24:05;101890.91;;;6.83;59.85
26443;BME280;5563;52.296;6.806;2023-04-20T04:26:39;101897.22;;;6.80;59.93
26443;BME280;5563;52.296;6.806;2023-04-20T04:29:12;101885.66;;;6.81;60.03
26443;BME280;5563;52.296;6.806;2023-04-20T04:31:45;101892.84;;;6.79;60.10
26443;BME280;5563;52.296;6.806;2023-04-20T04:34:19;101877.47;;;6.69;59.95
26443;BME280;5563;52.296;6.806;2023-04-20T04:36:52;101886.84;;;6.76;60.50
26443;BME280;5563;52.296;6.806;2023-04-20T04:39:26;101883.16;;;6.78;60.02
26443;BME280;5563;52.296;6.806;2023-04-20T04:41:53;101880.75;;;6.74;59.95
26443;BME280;5563;52.296;6.806;2023-04-20T04:44:30;101880.75;;;6.74;60.02
26443;BME280;5563;52.296;6.806;2023-04-20T04:47:12;101896.50;;;6.77;59.98
26443;BME280;5563;52.296;6.806;2023-04-20T04:49:46;101901.81;;;6.77;59.99
26443;BME280;5563;52.296;6.806;2023-04-20T04:52:21;101886.19;;;6.71;60.38
26443;BME280;5563;52.296;6.806;2023-04-20T04:54:55;101885.91;;;6.77;59.96
26443;BME280;5563;52.296;6.806;2023-04-20T04:57:21;101893.94;;;6.75;60.15
26443;BME280;5563;52.296;6.806;2023-04-20T05:00:01;101886.84;;;6.76;60.27
26443;BME280;5563;52.296;6.806;2023-04-20T05:02:32;101898.38;;;6.75;60.28
26443;BME280;5563;52.296;6.806;2023-04-20T05:05:06;101890.66;;;6.70;60.13
26443;BME280;5563;52.296;6.806;2023-04-20T05:07:41;101885.47;;;6.67;60.39
26443;BME280;5563;52.296;6.806;2023-04-20T05:10:14;101876.53;;;6.70;60.59
26443;BME280;5563;52.296;6.806;2023-04-20T05:12:40;101876.38;;;6.73;60.98
26443;BME280;5563;52.296;6.806;2023-04-20T05:15:14;101880.03;;;6.70;60.18
26443;BME280;5563;52.296;6.806;2023-04-20T05:17:40;101878.91;;;6.76;60.70
26443;BME280;5563;52.296;6.806;2023-04-20T05:20:08;101876.16;;;6.77;60.75
26443;BME280;5563;52.296;6.806;2023-04-20T05:22:43;101867.44;;;6.75;60.54
26443;BME280;5563;52.296;6.806;2023-04-20T05:25:10;101874.31;;;6.79;60.76
26443;BME280;5563;52.296;6.806;2023-04-20T05:27:43;101875.94;;;6.82;60.55
26443;BME280;5563;52.296;6.806;2023-04-20T05:30:17;101889.19;;;6.82;61.10
26443;BME280;5563;52.296;6.806;2023-04-20T05:32:47;101883.88;;;6.82;61.21
26443;BME280;5563;52.296;6.806;2023-04-20T05:35:18;101893.56;;;6.83;61.38
26443;BME280;5563;52.296;6.806;2023-04-20T05:37:52;101880.31;;;6.83;61.43
26443;BME280;5563;52.296;6.806;2023-04-20T05:40:18;101883.59;;;6.88;61.41
26443;BME280;5563;52.296;6.806;2023-04-20T05:42:52;101885.28;;;6.89;61.34
26443;BME280;5563;52.296;6.806;2023-04-20T05:45:19;101893.16;;;6.90;61.32
26443;BME280;5563;52.296;6.806;2023-04-20T05:47:55;101881.81;;;6.88;61.68
26443;BME280;5563;52.296;6.806;2023-04-20T05:50:23;101885.22;;;6.90;61.70
26443;BME280;5563;52.296;6.806;2023-04-20T05:52:57;101892.19;;;6.93;61.78
26443;BME280;5563;52.296;6.806;2023-04-20T05:55:24;101891.22;;;6.94;62.34
26443;BME280;5563;52.296;6.806;2023-04-20T05:57:58;101900.91;;;6.95;61.70
26443;BME280;5563;52.296;6.806;2023-04-20T06:00:37;101897.31;;;6.96;62.13
26443;BME280;5563;52.296;6.806;2023-04-20T06:03:11;101892.09;;;6.94;62.26
26443;BME280;5563;52.296;6.806;2023-04-20T06:05:38;101881.56;;;6.93;62.36
26443;BME280;5563;52.296;6.806;2023-04-20T06:08:12;101893.88;;;6.94;62.26
26443;BME280;5563;52.296;6.806;2023-04-20T06:10:39;101897.41;;;6.94;63.18
26443;BME280;5563;52.296;6.806;2023-04-20T06:13:12;101889.38;;;6.96;63.13
26443;BME280;5563;52.296;6.806;2023-04-20T06:15:38;101890.16;;;6.98;62.95
26443;BME280;5563;52.296;6.806;2023-04-20T06:18:05;101881.31;;;6.97;62.84
26443;BME280;5563;52.296;6.806;2023-04-20T06:20:39;101898.97;;;6.98;63.21
26443;BME280;5563;52.296;6.806;2023-04-20T06:23:06;101886.16;;;6.89;63.10
26443;BME280;5563;52.296;6.806;2023-04-20T06:25:39;101893.31;;;6.87;63.64
26443;BME280;5563;52.296;6.806;2023-04-20T06:28:06;101889.03;;;6.85;63.80
26443;BME280;5563;52.296;6.806;2023-04-20T06:30:33;101879.28;;;6.85;63.60
26443;BME280;5563;52.296;6.806;2023-04-20T06:33:07;101880.00;;;6.89;64.10
26443;BME280;5563;52.296;6.806;2023-04-20T06:35:40;101879.72;;;6.95;64.11
26443;BME280;5563;52.296;6.806;2023-04-20T06:38:07;101878.69;;;6.97;63.51
26443;BME280;5563;52.296;6.806;2023-04-20T06:40:41;101880.09;;;7.04;63.91
26443;BME280;5563;52.296;6.806;2023-04-20T06:43:15;101881.44;;;7.13;63.79
26443;BME280;5563;52.296;6.806;2023-04-20T06:45:48;101887.06;;;7.24;63.72
26443;BME280;5563;52.296;6.806;2023-04-20T06:48:21;101884.19;;;7.28;63.75
26443;BME280;5563;52.296;6.806;2023-04-20T06:50:57;101891.09;;;7.31;63.83
26443;BME280;5563;52.296;6.806;2023-04-20T06:53:30;101879.50;;;7.33;63.70
26443;BME280;5563;52.296;6.806;2023-04-20T06:55:56;101883.94;;;7.33;64.38
26443;BME280;5563;52.296;6.806;2023-04-20T06:58:30;101872.94;;;7.23;64.11
26443;BME280;5563;52.296;6.806;2023-04-20T07:01:09;101882.25;;;7.15;64.26
26443;BME280;5563;52.296;6.806;2023-04-20T07:03:43;101883.25;;;7.12;64.65
26443;BME280;5563;52.296;6.806;2023-04-20T07:06:19;101880.75;;;7.09;64.73
26443;BME280;5563;52.296;6.806;2023-04-20T07:08:53;101889.53;;;7.10;65.45
26443;BME280;5563;52.296;6.806;2023-04-20T07:11:19;101877.38;;;7.06;64.66
26443;BME280;5563;52.296;6.806;2023-04-20T07:13:46;101879.59;;;7.15;64.78
26443;BME280;5563;52.296;6.806;2023-04-20T07:16:19;101878.25;;;7.23;64.62
26443;BME280;5563;52.296;6.806;2023-04-20T07:18:46;101886.59;;;7.33;64.33
26443;BME280;5563;52.296;6.806;2023-04-20T07:21:20;101879.41;;;7.35;64.74
26443;BME280;5563;52.296;6.806;2023-04-20T07:23:52;101884.41;;;7.41;64.02
26443;BME280;5563;52.296;6.806;2023-04-20T07:26:28;101888.31;;;7.34;64.68
26443;BME280;5563;52.296;6.806;2023-04-20T07:28:54;101885.06;;;7.29;64.89
26443;BME280;5563;52.296;6.806;2023-04-20T07:31:28;101881.28;;;7.16;64.78
26443;BME280;5563;52.296;6.806;2023-04-20T07:33:55;101886.06;;;7.09;65.62
26443;BME280;5563;52.296;6.806;2023-04-20T07:36:28;101877.53;;;7.03;65.52
26443;BME280;5563;52.296;6.806;2023-04-20T07:38:55;101870.19;;;7.08;65.57
26443;BME280;5563;52.296;6.806;2023-04-20T07:41:29;101858.22;;;7.18;66.03
26443;BME280;5563;52.296;6.806;2023-04-20T07:43:55;101852.09;;;7.33;66.00
26443;BME280;5563;52.296;6.806;2023-04-20T07:46:29;101864.19;;;7.55;65.54
26443;BME280;5563;52.296;6.806;2023-04-20T07:49:03;101869.69;;;7.68;64.92
26443;BME280;5563;52.296;6.806;2023-04-20T07:51:36;101871.44;;;7.69;64.58
26443;BME280;5563;52.296;6.806;2023-04-20T07:54:03;101878.22;;;7.75;64.49
26443;BME280;5563;52.296;6.806;2023-04-20T07:56:37;101869.31;;;7.76;64.62
26443;BME280;5563;52.296;6.806;2023-04-20T07:59:10;101873.44;;;7.81;64.96
26443;BME280;5563;52.296;6.806;2023-04-20T08:01:50;101889.97;;;7.86;64.58
26443;BME280;5563;52.296;6.806;2023-04-20T08:04:24;101879.22;;;7.89;65.41
26443;BME280;5563;52.296;6.806;2023-04-20T08:06:51;101874.31;;;7.82;64.51
26443;BME280;5563;52.296;6.806;2023-04-20T08:09:25;101881.41;;;7.81;64.71
26443;BME280;5563;52.296;6.806;2023-04-20T08:11:51;101867.59;;;7.75;64.45
26443;BME280;5563;52.296;6.806;2023-04-20T08:14:25;101882.97;;;7.85;64.75
26443;BME280;5563;52.296;6.806;2023-04-20T08:16:51;101877.78;;;7.99;65.11
26443;BME280;5563;52.296;6.806;2023-04-20T08:19:25;101873.66;;;8.09;63.97
26443;BME280;5563;52.296;6.806;2023-04-20T08:21:59;101856.53;;;8.15;63.39
26443;BME280;5563;52.296;6.806;2023-04-20T08:24:32;101851.81;;;8.37;65.04
26443;BME280;5563;52.296;6.806;2023-04-20T08:26:58;101846.97;;;8.59;64.07
26443;BME280;5563;52.296;6.806;2023-04-20T08:29:25;101853.16;;;8.75;63.97
26443;BME280;5563;52.296;6.806;2023-04-20T08:31:58;101846.34;;;8.85;63.14
26443;BME280;5563;52.296;6.806;2023-04-20T08:34:26;101853.84;;;8.79;63.04
26443;BME280;5563;52.296;6.806;2023-04-20T08:36:59;101843.88;;;8.82;63.26
26443;BME280;5563;52.296;6.806;2023-04-20T08:39:27;101844.25;;;8.76;62.27
26443;BME280;5563;52.296;6.806;2023-04-20T08:42:00;101847.50;;;8.81;62.34
26443;BME280;5563;52.296;6.806;2023-04-20T08:44:27;101827.81;;;8.84;62.11
26443;BME280;5563;52.296;6.806;2023-04-20T08:47:01;101827.44;;;8.76;60.67
26443;BME280;5563;52.296;6.806;2023-04-20T08:49:28;101838.94;;;8.76;61.71
26443;BME280;5563;52.296;6.806;2023-04-20T08:52:03;101837.63;;;8.83;61.84
26443;BME280;5563;52.296;6.806;2023-04-20T08:54:29;101839.31;;;8.84;60.92
26443;BME280;5563;52.296;6.806;2023-04-20T08:57:14;101844.41;;;8.89;60.83
26443;BME280;5563;52.296;6.806;2023-04-20T08:59:41;101842.84;;;8.85;60.83
26443;BME280;5563;52.296;6.806;2023-04-20T09:02:22;101837.00;;;8.78;61.24
26443;BME280;5563;52.296;6.806;2023-04-20T09:05:05;101849.63;;;8.90;59.45
26443;BME280;5563;52.296;6.806;2023-04-20T09:07:39;101855.47;;;8.81;60.28
26443;BME280;5563;52.296;6.806;2023-04-20T09:10:13;101850.88;;;8.99;59.86
26443;BME280;5563;52.296;6.806;2023-04-20T09:12:46;101845.28;;;9.03;60.01
26443;BME280;5563;52.296;6.806;2023-04-20T09:15:26;101850.84;;;9.14;59.80
26443;BME280;5563;52.296;6.806;2023-04-20T09:18:10;101852.47;;;9.17;59.59
26443;BME280;5563;52.296;6.806;2023-04-20T09:20:45;101848.75;;;9.19;59.35
26443;BME280;5563;52.296;6.806;2023-04-20T09:23:19;101845.06;;;9.22;59.45
26443;BME280;5563;52.296;6.806;2023-04-20T09:25:50;101843.44;;;9.19;58.32
26443;BME280;5563;52.296;6.806;2023-04-20T09:28:34;101858.19;;;9.25;59.00
26443;BME280;5563;52.296;6.806;2023-04-20T09:31:01;101852.81;;;9.11;58.03
26443;BME280;5563;52.296;6.806;2023-04-20T09:33:35;101833.16;;;8.84;58.92
26443;BME280;5563;52.296;6.806;2023-04-20T09:36:10;101822.41;;;8.85;59.59
26443;BME280;5563;52.296;6.806;2023-04-20T09:38:37;101825.59;;;9.21;59.54
26443;BME280;5563;52.296;6.806;2023-04-20T09:41:04;101831.19;;;9.74;57.92
26443;BME280;5563;52.296;6.806;2023-04-20T09:43:39;101828.22;;;10.07;56.74
26443;BME280;5563;52.296;6.806;2023-04-20T09:46:14;101824.13;;;10.30;55.73
26443;BME280;5563;52.296;6.806;2023-04-20T09:48:48;101829.97;;;10.49;56.51
26443;BME280;5563;52.296;6.806;2023-04-20T09:51:25;101839.31;;;10.42;56.39
26443;BME280;5563;52.296;6.806;2023-04-20T09:53:55;101831.47;;;10.26;55.89
26443;BME280;5563;52.296;6.806;2023-04-20T09:56:28;101824.34;;;10.13;57.01
26443;BME280;5563;52.296;6.806;2023-04-20T09:58:57;101835.66;;;10.02;56.22
26443;BME280;5563;52.296;6.806;2023-04-20T10:01:38;101815.28;;;10.01;55.67
26443;BME280;5563;52.296;6.806;2023-04-20T10:04:08;101817.31;;;10.12;54.74
26443;BME280;5563;52.296;6.806;2023-04-20T10:06:56;101812.91;;;10.25;56.49
26443;BME280;5563;52.296;6.806;2023-04-20T10:09:35;101810.50;;;10.34;55.74
26443;BME280;5563;52.296;6.806;2023-04-20T10:12:08;101820.56;;;10.43;55.83
26443;BME280;5563;52.296;6.806;2023-04-20T10:14:42;101809.91;;;10.43;54.87
26443;BME280;5563;52.296;6.806;2023-04-20T10:17:28;101817.94;;;10.29;55.36
26443;BME280;5563;52.296;6.806;2023-04-20T10:19:55;101823.41;;;10.14;55.64
26443;BME280;5563;52.296;6.806;2023-04-20T10:22:31;101826.81;;;10.02;55.58
26443;BME280;5563;52.296;6.806;2023-04-20T10:25:12;101818.25;;;10.11;55.33
26443;BME280;5563;52.296;6.806;2023-04-20T10:30:29;101816.44;;;10.52;55.05
26443;BME280;5563;52.296;6.806;2023-04-20T10:38:31;101795.81;;;11.07;53.28
26443;BME280;5563;52.296;6.806;2023-04-20T10:41:08;101802.50;;;11.52;52.09
26443;BME280;5563;52.296;6.806;2023-04-20T10:43:36;101800.72;;;11.65;51.42
26443;BME280;5563;52.296;6.806;2023-04-20T10:46:22;101795.00;;;11.32;51.30
26443;BME280;5563;52.296;6.806;2023-04-20T10:48:54;101801.69;;;11.00;51.71
26443;BME280;5563;52.296;6.806;2023-04-20T10:51:27;101803.16;;;10.64;53.45
26443;BME280;5563;52.296;6.806;2023-04-20T10:54:04;101807.94;;;10.59;53.85
26443;BME280;5563;52.296;6.806;2023-04-20T10:56:46;101802.38;;;10.50;53.15
26443;BME280;5563;52.296;6.806;2023-04-20T10:59:18;101800.78;;;10.33;53.77
26443;BME280;5563;52.296;6.806;2023-04-20T11:01:51;101790.91;;;10.35;53.90
26443;BME280;5563;52.296;6.806;2023-04-20T11:04:28;101794.31;;;10.37;54.58
26443;BME280;5563;52.296;6.806;2023-04-20T11:07:05;101796.13;;;10.37;53.63
26443;BME280;5563;52.296;6.806;2023-04-20T11:09:33;101793.63;;;10.48;53.09
26443;BME280;5563;52.296;6.806;2023-04-20T11:12:06;101792.50;;;10.64;53.77
26443;BME280;5563;52.296;6.806;2023-04-20T11:14:36;101787.31;;;10.75;53.26
26443;BME280;5563;52.296;6.806;2023-04-20T11:17:10;101778.00;;;10.68;54.08
26443;BME280;5563;52.296;6.806;2023-04-20T11:19:43;101799.56;;;10.65;54.05
26443;BME280;5563;52.296;6.806;2023-04-20T11:22:21;101781.78;;;10.52;53.83
26443;BME280;5563;52.296;6.806;2023-04-20T11:25:05;101790.41;;;10.69;54.48
26443;BME280;5563;52.296;6.806;2023-04-20T11:27:40;101789.06;;;11.02;53.16
26443;BME280;5563;52.296;6.806;2023-04-20T11:30:08;101783.56;;;11.05;53.04
26443;BME280;5563;52.296;6.806;2023-04-20T11:32:52;101774.66;;;10.92;51.66
26443;BME280;5563;52.296;6.806;2023-04-20T11:35:26;101767.34;;;10.68;51.69
26443;BME280;5563;52.296;6.806;2023-04-20T11:38:07;101779.63;;;10.71;51.69
26443;BME280;5563;52.296;6.806;2023-04-20T11:40:41;101774.19;;;10.72;51.88
26443;BME280;5563;52.296;6.806;2023-04-20T11:43:08;101770.50;;;10.61;52.19
26443;BME280;5563;52.296;6.806;2023-04-20T11:45:41;101763.81;;;10.41;52.21
26443;BME280;5563;52.296;6.806;2023-04-20T11:48:08;101764.25;;;10.35;52.72
26443;BME280;5563;52.296;6.806;2023-04-20T11:50:41;101770.50;;;10.34;54.17
26443;BME280;5563;52.296;6.806;2023-04-20T11:53:11;101774.03;;;10.35;54.73
26443;BME280;5563;52.296;6.806;2023-04-20T11:55:47;101774.78;;;10.37;54.72
26443;BME280;5563;52.296;6.806;2023-04-20T11:58:14;101759.78;;;10.36;54.76
26443;BME280;5563;52.296;6.806;2023-04-20T12:00:41;101773.38;;;10.31;53.99
26443;BME280;5563;52.296;6.806;2023-04-20T12:03:15;101773.50;;;10.30;53.89
26443;BME280;5563;52.296;6.806;2023-04-20T12:05:48;101765.38;;;10.31;53.75
26443;BME280;5563;52.296;6.806;2023-04-20T12:08:22;101762.75;;;10.17;53.33
26443;BME280;5563;52.296;6.806;2023-04-20T12:10:50;101781.47;;;10.30;53.44
26443;BME280;5563;52.296;6.806;2023-04-20T12:13:24;101767.19;;;10.31;54.16
26443;BME280;5563;52.296;6.806;2023-04-20T12:15:51;101776.97;;;10.44;53.60
26443;BME280;5563;52.296;6.806;2023-04-20T12:18:24;101773.09;;;10.62;53.72
26443;BME280;5563;52.296;6.806;2023-04-20T12:20:51;101771.97;;;10.79;52.68
26443;BME280;5563;52.296;6.806;2023-04-20T12:23:24;101769.53;;;10.88;53.02
26443;BME280;5563;52.296;6.806;2023-04-20T12:25:51;101770.97;;;11.07;52.47
26443;BME280;5563;52.296;6.806;2023-04-20T12:28:24;101765.94;;;11.15;52.02
26443;BME280;5563;52.296;6.806;2023-04-20T12:30:57;101764.53;;;11.09;52.54
26443;BME280;5563;52.296;6.806;2023-04-20T12:33:24;101765.63;;;11.07;53.19
26443;BME280;5563;52.296;6.806;2023-04-20T12:35:57;101764.88;;;11.05;51.37
26443;BME280;5563;52.296;6.806;2023-04-20T12:38:30;101763.34;;;10.88;51.01
26443;BME280;5563;52.296;6.806;2023-04-20T12:41:03;101762.44;;;10.75;51.98
26443;BME280;5563;52.296;6.806;2023-04-20T12:43:30;101773.81;;;10.64;50.99
26443;BME280;5563;52.296;6.806;2023-04-20T12:46:03;101768.00;;;10.45;51.57
26443;BME280;5563;52.296;6.806;2023-04-20T12:48:37;101764.25;;;10.35;51.43
26443;BME280;5563;52.296;6.806;2023-04-20T12:51:11;101767.13;;;10.32;52.19
26443;BME280;5563;52.296;6.806;2023-04-20T12:53:38;101765.50;;;10.30;51.61
26443;BME280;5563;52.296;6.806;2023-04-20T12:56:11;101761.19;;;10.27;52.48
26443;BME280;5563;52.296;6.806;2023-04-20T12:58:44;101768.81;;;10.33;52.77
26443;BME280;5563;52.296;6.806;2023-04-20T13:01:25;101765.09;;;10.36;51.85
26443;BME280;5563;52.296;6.806;2023-04-20T13:03:52;101761.25;;;10.40;51.51
26443;BME280;5563;52.296;6.806;2023-04-20T13:06:20;101757.94;;;10.36;51.65
26443;BME280;5563;52.296;6.806;2023-04-20T13:08:53;101760.88;;;10.46;51.32
26443;BME280;5563;52.296;6.806;2023-04-20T13:11:20;101762.00;;;10.68;51.37
26443;BME280;5563;52.296;6.806;2023-04-20T13:13:54;101751.22;;;11.34;51.09
26443;BME280;5563;52.296;6.806;2023-04-20T13:16:23;101742.28;;;12.09;49.47
26443;BME280;5563;52.296;6.806;2023-04-20T13:18:57;101743.00;;;12.24;47.68
26443;BME280;5563;52.296;6.806;2023-04-20T13:21:24;101743.56;;;12.40;46.99
26443;BME280;5563;52.296;6.806;2023-04-20T13:23:58;101738.38;;;12.49;46.18
26443;BME280;5563;52.296;6.806;2023-04-20T13:26:25;101733.06;;;12.37;46.79
26443;BME280;5563;52.296;6.806;2023-04-20T13:28:58;101728.16;;;12.43;47.00
26443;BME280;5563;52.296;6.806;2023-04-20T13:31:25;101722.56;;;12.81;45.17
26443;BME280;5563;52.296;6.806;2023-04-20T13:33:58;101727.97;;;13.27;44.99
26443;BME280;5563;52.296;6.806;2023-04-20T13:36:25;101728.31;;;13.33;44.36
26443;BME280;5563;52.296;6.806;2023-04-20T13:39:00;101714.25;;;12.96;44.10
26443;BME280;5563;52.296;6.806;2023-04-20T13:41:34;101732.56;;;13.14;44.38